Portada
METAR-TAF:

METAR-TAF

Aeroports :

Kuusamo, Finlàndia

latitud: 65-58N, longitud: 029-11E, altitud: 262 m

Observació

L'informe es va fer fa 42 minuts, a les 02:50 UTC
Vent 4 kt del Sud
Temperatura -4°C
Humitat 93%
Pressió 982 hPa
Visibilitat 10 km o més
Cel cobert a una alçada de 500 ft
xàfecs de neu

METAR: EFKS 070250Z AUTO 18004KT 9999 -SHSN OVC005 M04/M05 Q0982

Hora: 05:32 (03:32 UTC)

Pronòstic

L'informe es va fer fa 55 minuts, a les 02:37 UTC
Pronòstic vàlid del 07 a les 03 UTC al 07 a les 12 UTC
Vent 7 kt del Sud/Sud-Oest
Visibilitat 10 km o més
Cel cobert a una alçada de 500 ft
Evolucionant progressivament
l' 07 a les 03 UTC al 07 a les 05 UTC
Cel cobert a una alçada de 300 ft
Temporalment
l' 07 a les 05 UTC al 07 a les 12 UTC
Visibilitat: 3000 m
boirina

TAF: EFKS 070237Z 0703/0712 21007KT 9999 OVC005 BECMG 0703/0705 OVC003 TEMPO 0705/0712 3000 BR

Observacions i pronòstics meteorològics de més de 4000 aeroports (METAR i TAF).

Les estacions disponibles són els punts grocs i vermells al mapa.

Posi el ratolí al punt desitjat per veure el nom de l'estació.

Feu clic per veure les observacions i els pronòstics meteorològics.

Per canviar el mapa: feu clic els botons verds amb una creu de color negre per apropar; al botó verd amb un guió per allunyar la imatge; o en les fletxes verdes per a mapes adjacents.


METAR-TAF: